CGMPW CYHZ-CYQM
Flight info
| Callsign | CGMPW |
|---|---|
| Flight time | N/A |
| Altitude | 5000 |
| Route | DCT YQM DCT |
| Aircraft | PC24/L-SBDGIRWY/LB2 |
Departure
| Time | N/A |
|---|---|
| Airport | Halifax / Stanfield International Airport (CYHZ) |
Arrival
| Time | 2026-04-18 10:09 |
|---|---|
| Airport | Greater Moncton Roméo LeBlanc International Airport (CYQM) |
| Time | Latitude | Longitude | Altitude | Speed | Heading |
|---|---|---|---|---|---|
| 2026-04-18 08:55 | 45.24184 | -63.63177 | 5045 ft | 298 kts | 326° |
| 2026-04-18 08:56 | 45.25901 | -63.64835 | 5040 ft | 299 kts | 326° |
| 2026-04-18 08:56 | 45.27617 | -63.66490 | 5040 ft | 298 kts | 326° |
| 2026-04-18 08:56 | 45.29335 | -63.68149 | 5040 ft | 298 kts | 326° |
| 2026-04-18 08:56 | 45.31053 | -63.69808 | 5041 ft | 298 kts | 326° |
| 2026-04-18 08:57 | 45.34437 | -63.73083 | 5039 ft | 294 kts | 326° |
| 2026-04-18 08:57 | 45.36129 | -63.74725 | 4967 ft | 296 kts | 326° |
| 2026-04-18 08:57 | 45.37836 | -63.76376 | 4721 ft | 295 kts | 326° |
| 2026-04-18 08:58 | 45.39526 | -63.78019 | 4483 ft | 289 kts | 326° |
| 2026-04-18 08:58 | 45.41120 | -63.79567 | 4228 ft | 266 kts | 327° |
| 2026-04-18 08:58 | 45.42584 | -63.80991 | 3985 ft | 244 kts | 328° |
| 2026-04-18 08:58 | 45.43912 | -63.82282 | 3960 ft | 221 kts | 327° |
| 2026-04-18 08:59 | 45.45163 | -63.83496 | 3963 ft | 216 kts | 328° |
| 2026-04-18 08:59 | 45.46405 | -63.84703 | 3964 ft | 216 kts | 328° |
| 2026-04-18 08:59 | 45.47647 | -63.85911 | 3963 ft | 216 kts | 328° |
| 2026-04-18 08:59 | 45.48898 | -63.87130 | 3970 ft | 219 kts | 327° |
| 2026-04-18 09:00 | 45.50145 | -63.88347 | 4003 ft | 219 kts | 328° |
| 2026-04-18 09:00 | 45.51412 | -63.89582 | 4000 ft | 222 kts | 328° |
| 2026-04-18 09:00 | 45.52685 | -63.90824 | 3983 ft | 219 kts | 328° |
| 2026-04-18 09:00 | 45.53750 | -63.92486 | 3974 ft | 247 kts | 296° |
| 2026-04-18 09:01 | 45.53899 | -63.94868 | 3960 ft | 237 kts | 256° |
| 2026-04-18 09:01 | 45.53018 | -63.96680 | 3958 ft | 220 kts | 213° |
| 2026-04-18 09:01 | 45.51501 | -63.97179 | 3972 ft | 235 kts | 171° |
| 2026-04-18 09:01 | 45.49983 | -63.96630 | 3969 ft | 228 kts | 174° |
| 2026-04-18 09:02 | 45.48494 | -63.97302 | 3967 ft | 230 kts | 219° |
| 2026-04-18 09:02 | 45.47706 | -63.99215 | 3969 ft | 227 kts | 262° |
| 2026-04-18 09:02 | 45.47997 | -64.01358 | 3966 ft | 223 kts | 303° |
| 2026-04-18 09:02 | 45.49191 | -64.02647 | 3971 ft | 217 kts | 346° |
| 2026-04-18 09:03 | 45.50672 | -64.02620 | 3987 ft | 213 kts | 10° |
| 2026-04-18 09:03 | 45.52155 | -64.02402 | 3982 ft | 215 kts | 3° |
| 2026-04-18 09:03 | 45.53651 | -64.02507 | 3985 ft | 216 kts | 354° |
| 2026-04-18 09:03 | 45.55098 | -64.02994 | 3977 ft | 217 kts | 341° |
| 2026-04-18 09:04 | 45.56456 | -64.03950 | 3981 ft | 218 kts | 332° |
| 2026-04-18 09:04 | 45.57761 | -64.05046 | 3980 ft | 218 kts | 332° |
| 2026-04-18 09:04 | 45.59083 | -64.06100 | 3973 ft | 217 kts | 333° |
| 2026-04-18 09:04 | 45.60412 | -64.07129 | 3981 ft | 217 kts | 333° |
| 2026-04-18 09:05 | 45.61739 | -64.08156 | 3983 ft | 217 kts | 334° |
| 2026-04-18 09:05 | 45.63063 | -64.09184 | 3982 ft | 217 kts | 333° |
| 2026-04-18 09:05 | 45.64387 | -64.10217 | 3987 ft | 216 kts | 333° |
| 2026-04-18 09:05 | 45.65707 | -64.11244 | 3982 ft | 215 kts | 333° |
| 2026-04-18 09:06 | 45.67026 | -64.12272 | 3985 ft | 215 kts | 333° |
| 2026-04-18 09:06 | 45.68329 | -64.13289 | 3985 ft | 216 kts | 333° |
| 2026-04-18 09:06 | 45.69651 | -64.14318 | 3983 ft | 216 kts | 333° |
| 2026-04-18 09:06 | 45.70976 | -64.15354 | 3979 ft | 217 kts | 333° |
| 2026-04-18 09:07 | 45.72303 | -64.16390 | 3985 ft | 217 kts | 333° |
| 2026-04-18 09:07 | 45.73628 | -64.17425 | 3990 ft | 217 kts | 333° |
| 2026-04-18 09:07 | 45.74940 | -64.18451 | 3991 ft | 217 kts | 333° |
| 2026-04-18 09:07 | 45.76269 | -64.19489 | 3990 ft | 217 kts | 333° |
| 2026-04-18 09:08 | 45.77598 | -64.20531 | 3988 ft | 218 kts | 333° |
| 2026-04-18 09:08 | 45.78930 | -64.21573 | 3985 ft | 218 kts | 333° |
| 2026-04-18 09:08 | 45.80262 | -64.22619 | 3990 ft | 218 kts | 333° |
| 2026-04-18 09:08 | 45.81596 | -64.23663 | 3990 ft | 218 kts | 333° |
| 2026-04-18 09:09 | 45.82929 | -64.24710 | 3994 ft | 218 kts | 333° |
| 2026-04-18 09:09 | 45.84260 | -64.25754 | 3996 ft | 218 kts | 333° |
| 2026-04-18 09:09 | 45.85577 | -64.26788 | 3989 ft | 218 kts | 333° |
| 2026-04-18 09:09 | 45.86908 | -64.27834 | 3995 ft | 218 kts | 333° |
| 2026-04-18 09:10 | 45.88236 | -64.28877 | 4001 ft | 218 kts | 333° |
| 2026-04-18 09:10 | 45.89567 | -64.29925 | 4002 ft | 218 kts | 333° |
| 2026-04-18 09:10 | 45.90901 | -64.30973 | 4002 ft | 218 kts | 333° |
| 2026-04-18 09:10 | 45.92236 | -64.32023 | 4001 ft | 219 kts | 332° |
| 2026-04-18 09:11 | 45.93574 | -64.33079 | 4000 ft | 220 kts | 332° |
| 2026-04-18 09:11 | 45.94870 | -64.34210 | 3985 ft | 213 kts | 318° |
| 2026-04-18 09:11 | 45.95382 | -64.35373 | 3982 ft | 208 kts | 287° |
| 2026-04-18 09:11 | 45.95162 | -64.38035 | 3997 ft | 203 kts | 255° |
| 2026-04-18 09:12 | 45.94881 | -64.40025 | 4000 ft | 203 kts | 267° |
| 2026-04-18 09:12 | 45.94888 | -64.41390 | 4001 ft | 202 kts | 275° |
| 2026-04-18 09:12 | 45.95032 | -64.43360 | 3997 ft | 195 kts | 277° |
| 2026-04-18 09:12 | 45.95173 | -64.45267 | 3990 ft | 193 kts | 277° |
| 2026-04-18 09:13 | 45.95297 | -64.47181 | 3991 ft | 192 kts | 276° |
| 2026-04-18 09:13 | 45.95415 | -64.49085 | 3988 ft | 191 kts | 276° |
| 2026-04-18 09:13 | 45.95534 | -64.50988 | 3985 ft | 191 kts | 276° |
| 2026-04-18 09:13 | 45.95651 | -64.52892 | 3986 ft | 191 kts | 276° |
| 2026-04-18 09:14 | 45.95785 | -64.54791 | 3975 ft | 190 kts | 283° |
| 2026-04-18 09:14 | 45.96294 | -64.56530 | 3933 ft | 190 kts | 286° |
| 2026-04-18 09:14 | 45.96213 | -64.58432 | 3905 ft | 192 kts | 259° |
| 2026-04-18 09:14 | 45.96133 | -64.60343 | 3907 ft | 192 kts | 275° |
| 2026-04-18 09:15 | 45.96259 | -64.62262 | 3934 ft | 193 kts | 277° |
| 2026-04-18 09:15 | 45.96387 | -64.64187 | 3926 ft | 194 kts | 276° |
| 2026-04-18 09:15 | 45.96496 | -64.66003 | 3959 ft | 174 kts | 276° |
| 2026-04-18 09:15 | 45.96593 | -64.67654 | 3869 ft | 159 kts | 276° |
| 2026-04-18 09:16 | 45.96684 | -64.69197 | 3718 ft | 152 kts | 276° |
| 2026-04-18 09:16 | 45.96773 | -64.70695 | 3545 ft | 149 kts | 275° |
| 2026-04-18 09:16 | 45.96859 | -64.72172 | 3344 ft | 147 kts | 275° |
| 2026-04-18 09:16 | 45.96946 | -64.73638 | 3142 ft | 147 kts | 275° |
| 2026-04-18 09:17 | 45.97031 | -64.75094 | 2949 ft | 149 kts | 276° |
| 2026-04-18 09:17 | 45.97117 | -64.76584 | 2761 ft | 150 kts | 275° |
| 2026-04-18 09:17 | 45.97205 | -64.78074 | 2690 ft | 145 kts | 276° |
| 2026-04-18 09:17 | 45.97290 | -64.79552 | 2699 ft | 151 kts | 276° |
| 2026-04-18 09:18 | 45.97379 | -64.81062 | 2707 ft | 152 kts | 275° |
| 2026-04-18 09:18 | 45.97467 | -64.82585 | 2706 ft | 154 kts | 276° |
| 2026-04-18 09:18 | 45.97554 | -64.84116 | 2706 ft | 153 kts | 275° |
| 2026-04-18 09:18 | 45.97643 | -64.85638 | 2701 ft | 152 kts | 275° |
| 2026-04-18 09:19 | 45.97758 | -64.87145 | 2682 ft | 151 kts | 290° |
| 2026-04-18 09:19 | 45.98490 | -64.88037 | 2639 ft | 137 kts | 6° |
| 2026-04-18 09:19 | 45.99275 | -64.87251 | 2881 ft | 161 kts | 70° |
| 2026-04-18 09:19 | 45.99495 | -64.85666 | 3850 ft | 155 kts | 76° |
| 2026-04-18 09:20 | 45.99902 | -64.84247 | 4751 ft | 163 kts | 60° |
| 2026-04-18 09:20 | 46.00731 | -64.82435 | 2936 ft | 248 kts | 53° |
| 2026-04-18 09:20 | 46.01856 | -64.80850 | 2862 ft | 202 kts | 39° |
| 2026-04-18 09:20 | 46.02917 | -64.79725 | 2306 ft | 184 kts | 44° |
| 2026-04-18 09:21 | 46.03793 | -64.78598 | 2193 ft | 149 kts | 45° |
| 2026-04-18 09:21 | 46.04470 | -64.77714 | 1947 ft | 116 kts | 47° |
| 2026-04-18 09:21 | 46.05030 | -64.76958 | 1580 ft | 108 kts | 48° |
| 2026-04-18 09:21 | 46.05573 | -64.76231 | 1241 ft | 103 kts | 46° |
| 2026-04-18 09:22 | 46.06144 | -64.75453 | 1214 ft | 128 kts | 46° |
| 2026-04-18 09:22 | 46.06846 | -64.74522 | 1272 ft | 151 kts | 45° |
| 2026-04-18 09:22 | 46.07559 | -64.73612 | 896 ft | 125 kts | 43° |
| 2026-04-18 09:22 | 46.08162 | -64.72769 | 498 ft | 115 kts | 46° |
| 2026-04-18 09:23 | 46.08675 | -64.71997 | 357 ft | 111 kts | 45° |
| 2026-04-18 09:23 | 46.09314 | -64.71110 | 457 ft | 139 kts | 42° |
| 2026-04-18 09:23 | 46.09971 | -64.70255 | 358 ft | 115 kts | 43° |
| 2026-04-18 09:23 | 46.10534 | -64.69523 | 234 ft | 105 kts | 41° |
| 2026-04-18 09:24 | 46.44927 | -63.82459 | 45 ft | 0 kts | 215° |
| 2026-04-18 09:26 | 46.44848 | -63.82541 | 46 ft | 52 kts | 214° |
| 2026-04-18 09:26 | 46.44366 | -63.83012 | 57 ft | 125 kts | 211° |
| 2026-04-18 09:27 | 46.43466 | -63.83878 | 427 ft | 177 kts | 212° |
| 2026-04-18 09:27 | 46.42401 | -63.85035 | 1151 ft | 210 kts | 225° |
| 2026-04-18 09:27 | 46.41547 | -63.86990 | 1754 ft | 248 kts | 239° |
| 2026-04-18 09:27 | 46.40528 | -63.89228 | 2329 ft | 284 kts | 232° |
| 2026-04-18 09:28 | 46.39238 | -63.91550 | 2882 ft | 288 kts | 229° |
| 2026-04-18 09:28 | 46.38051 | -63.93672 | 3349 ft | 257 kts | 232° |
| 2026-04-18 09:28 | 46.37019 | -63.95592 | 3789 ft | 233 kts | 233° |
| 2026-04-18 09:28 | 46.36025 | -63.97440 | 4001 ft | 232 kts | 233° |
| 2026-04-18 09:29 | 46.35037 | -63.99268 | 3992 ft | 228 kts | 233° |
| 2026-04-18 09:29 | 46.34063 | -64.01065 | 3991 ft | 225 kts | 233° |
| 2026-04-18 09:29 | 46.33097 | -64.02847 | 3993 ft | 225 kts | 233° |
| 2026-04-18 09:29 | 46.32130 | -64.04633 | 3991 ft | 225 kts | 233° |
| 2026-04-18 09:30 | 46.31174 | -64.06394 | 3990 ft | 225 kts | 233° |
| 2026-04-18 09:30 | 46.30205 | -64.08182 | 3990 ft | 226 kts | 233° |
| 2026-04-18 09:30 | 46.29232 | -64.09971 | 3991 ft | 226 kts | 233° |
| 2026-04-18 09:30 | 46.28257 | -64.11767 | 3994 ft | 227 kts | 232° |
| 2026-04-18 09:31 | 46.27280 | -64.13563 | 3993 ft | 228 kts | 232° |
| 2026-04-18 09:31 | 46.26301 | -64.15362 | 3994 ft | 227 kts | 232° |
| 2026-04-18 09:31 | 46.25327 | -64.17151 | 3987 ft | 226 kts | 232° |
| 2026-04-18 09:31 | 46.24353 | -64.18937 | 3986 ft | 226 kts | 232° |
| 2026-04-18 09:32 | 46.23382 | -64.20720 | 3986 ft | 225 kts | 232° |
| 2026-04-18 09:32 | 46.22410 | -64.22499 | 3984 ft | 225 kts | 232° |
| 2026-04-18 09:32 | 46.21451 | -64.24259 | 3982 ft | 225 kts | 232° |
| 2026-04-18 09:32 | 46.20482 | -64.26031 | 3981 ft | 225 kts | 232° |
| 2026-04-18 09:33 | 46.19513 | -64.27806 | 3973 ft | 225 kts | 232° |
| 2026-04-18 09:33 | 46.18539 | -64.29585 | 3973 ft | 226 kts | 232° |
| 2026-04-18 09:33 | 46.17560 | -64.31374 | 3974 ft | 227 kts | 232° |
| 2026-04-18 09:33 | 46.16580 | -64.33164 | 3977 ft | 226 kts | 232° |
| 2026-04-18 09:34 | 46.15647 | -64.34865 | 3963 ft | 207 kts | 232° |
| 2026-04-18 09:34 | 46.14780 | -64.36447 | 3964 ft | 199 kts | 232° |
| 2026-04-18 09:34 | 46.13915 | -64.38023 | 3969 ft | 211 kts | 232° |
| 2026-04-18 09:34 | 46.12979 | -64.39734 | 3977 ft | 221 kts | 232° |
| 2026-04-18 09:35 | 46.12016 | -64.41482 | 3982 ft | 223 kts | 231° |
| 2026-04-18 09:35 | 46.11048 | -64.43245 | 3976 ft | 226 kts | 231° |
| 2026-04-18 09:35 | 46.10071 | -64.45019 | 3977 ft | 226 kts | 231° |
| 2026-04-18 09:35 | 46.09093 | -64.46799 | 3977 ft | 226 kts | 231° |
| 2026-04-18 09:36 | 46.08115 | -64.48574 | 3972 ft | 226 kts | 231° |
| 2026-04-18 09:36 | 46.07138 | -64.50346 | 3972 ft | 226 kts | 231° |
| 2026-04-18 09:36 | 46.06175 | -64.52094 | 3970 ft | 226 kts | 231° |
| 2026-04-18 09:36 | 46.05200 | -64.53865 | 3968 ft | 225 kts | 231° |
| 2026-04-18 09:37 | 46.04223 | -64.55630 | 3965 ft | 225 kts | 231° |
| 2026-04-18 09:37 | 46.03246 | -64.57392 | 3967 ft | 225 kts | 231° |
| 2026-04-18 09:37 | 46.02275 | -64.59157 | 3967 ft | 225 kts | 231° |
| 2026-04-18 09:37 | 46.01297 | -64.60925 | 3967 ft | 226 kts | 231° |
| 2026-04-18 09:38 | 46.00319 | -64.62691 | 3967 ft | 225 kts | 231° |
| 2026-04-18 09:38 | 45.99337 | -64.64463 | 3967 ft | 225 kts | 231° |
| 2026-04-18 09:38 | 45.98361 | -64.66226 | 3967 ft | 225 kts | 231° |
| 2026-04-18 09:38 | 45.97397 | -64.67963 | 3967 ft | 225 kts | 231° |
| 2026-04-18 09:39 | 45.96420 | -64.69725 | 3993 ft | 225 kts | 231° |
| 2026-04-18 09:39 | 45.95444 | -64.71484 | 3991 ft | 225 kts | 231° |
| 2026-04-18 09:39 | 45.94489 | -64.73202 | 3983 ft | 211 kts | 231° |
| 2026-04-18 09:39 | 45.93598 | -64.74807 | 3978 ft | 205 kts | 231° |
| 2026-04-18 09:40 | 45.93007 | -64.76690 | 3983 ft | 206 kts | 263° |
| 2026-04-18 09:40 | 45.93114 | -64.78646 | 3979 ft | 196 kts | 289° |
| 2026-04-18 09:40 | 45.93796 | -64.80299 | 3978 ft | 191 kts | 314° |
| 2026-04-18 09:40 | 45.94711 | -64.81707 | 3822 ft | 193 kts | 314° |
| 2026-04-18 09:41 | 45.95590 | -64.83089 | 3559 ft | 180 kts | 314° |
| 2026-04-18 09:41 | 45.96414 | -64.84383 | 3318 ft | 170 kts | 314° |
| 2026-04-18 09:41 | 45.97197 | -64.85612 | 3095 ft | 163 kts | 315° |
| 2026-04-18 09:41 | 45.97971 | -64.86810 | 2976 ft | 165 kts | 321° |
| 2026-04-18 09:42 | 45.98942 | -64.87190 | 2937 ft | 136 kts | 27° |
| 2026-04-18 09:42 | 45.99372 | -64.86229 | 2988 ft | 116 kts | 91° |
| 2026-04-18 09:42 | 45.99419 | -64.85104 | 2986 ft | 109 kts | 78° |
| 2026-04-18 09:42 | 45.99653 | -64.84089 | 2977 ft | 107 kts | 65° |
| 2026-04-18 09:43 | 46.00184 | -64.83255 | 3034 ft | 113 kts | 49° |
| 2026-04-18 09:43 | 46.00734 | -64.82445 | 2848 ft | 110 kts | 48° |
| 2026-04-18 09:43 | 46.01280 | -64.81700 | 2676 ft | 110 kts | 48° |
| 2026-04-18 09:43 | 46.01831 | -64.80965 | 2541 ft | 108 kts | 47° |
| 2026-04-18 09:44 | 46.02378 | -64.80240 | 2397 ft | 106 kts | 47° |
| 2026-04-18 09:44 | 46.02918 | -64.79527 | 2255 ft | 105 kts | 47° |
| 2026-04-18 09:44 | 46.03455 | -64.78825 | 2119 ft | 104 kts | 48° |
| 2026-04-18 09:44 | 46.03991 | -64.78121 | 1986 ft | 104 kts | 47° |
| 2026-04-18 09:45 | 46.04525 | -64.77416 | 1843 ft | 104 kts | 47° |
| 2026-04-18 09:45 | 46.05059 | -64.76717 | 1711 ft | 104 kts | 47° |
| 2026-04-18 09:45 | 46.05595 | -64.76014 | 1605 ft | 106 kts | 46° |
| 2026-04-18 09:45 | 46.06146 | -64.75289 | 1610 ft | 104 kts | 47° |
| 2026-04-18 09:46 | 46.06681 | -64.74585 | 1608 ft | 105 kts | 47° |
| 2026-04-18 09:46 | 46.07219 | -64.73882 | 1606 ft | 104 kts | 47° |
| 2026-04-18 09:46 | 46.07747 | -64.73186 | 1606 ft | 104 kts | 46° |
| 2026-04-18 09:46 | 46.08283 | -64.72480 | 1616 ft | 106 kts | 47° |
| 2026-04-18 09:47 | 46.08826 | -64.71772 | 1620 ft | 105 kts | 47° |
| 2026-04-18 09:47 | 46.09363 | -64.71060 | 1624 ft | 105 kts | 47° |
| 2026-04-18 09:47 | 46.09902 | -64.70354 | 1612 ft | 104 kts | 47° |
| 2026-04-18 09:47 | 46.10434 | -64.69654 | 1607 ft | 104 kts | 47° |
| 2026-04-18 09:48 | 46.10969 | -64.68945 | 1613 ft | 105 kts | 46° |
| 2026-04-18 09:48 | 46.11506 | -64.68238 | 1593 ft | 104 kts | 47° |
| 2026-04-18 09:48 | 46.12045 | -64.67533 | 1592 ft | 105 kts | 47° |
| 2026-04-18 09:48 | 46.12583 | -64.66823 | 1589 ft | 105 kts | 46° |
| 2026-04-18 09:49 | 46.44881 | -63.82347 | 44 ft | 0 kts | 305° |
| 2026-04-18 09:49 | 46.44889 | -63.82497 | 46 ft | 36 kts | 215° |
| 2026-04-18 09:49 | 46.44410 | -63.82965 | 52 ft | 125 kts | 216° |
| 2026-04-18 09:50 | 46.43538 | -63.83879 | 222 ft | 176 kts | 214° |
| 2026-04-18 09:50 | 46.42449 | -63.84977 | 467 ft | 205 kts | 213° |
| 2026-04-18 09:50 | 46.41360 | -63.86060 | 619 ft | 174 kts | 212° |
| 2026-04-18 09:50 | 46.40453 | -63.86953 | 687 ft | 143 kts | 211° |
| 2026-04-18 09:51 | 46.39531 | -63.87852 | 816 ft | 185 kts | 211° |
| 2026-04-18 09:51 | 46.38332 | -63.88974 | 1098 ft | 222 kts | 210° |
| 2026-04-18 09:51 | 46.36943 | -63.90242 | 1337 ft | 247 kts | 210° |
| 2026-04-18 09:51 | 46.35423 | -63.91595 | 1544 ft | 264 kts | 209° |
| 2026-04-18 09:52 | 46.33825 | -63.92991 | 1726 ft | 269 kts | 209° |
| 2026-04-18 09:52 | 46.32213 | -63.94380 | 1892 ft | 270 kts | 208° |
| 2026-04-18 09:52 | 46.30592 | -63.95762 | 2053 ft | 271 kts | 208° |
| 2026-04-18 09:52 | 46.28961 | -63.97136 | 2207 ft | 272 kts | 208° |
| 2026-04-18 09:53 | 46.27484 | -63.98814 | 2337 ft | 275 kts | 232° |
| 2026-04-18 09:53 | 46.26639 | -64.01296 | 2501 ft | 276 kts | 248° |
| 2026-04-18 09:53 | 46.25874 | -64.03843 | 2652 ft | 277 kts | 242° |
| 2026-04-18 09:53 | 46.24866 | -64.06223 | 2821 ft | 279 kts | 234° |
| 2026-04-18 09:54 | 46.23737 | -64.08509 | 2977 ft | 280 kts | 234° |
| 2026-04-18 09:54 | 46.22662 | -64.10826 | 3137 ft | 281 kts | 236° |
| 2026-04-18 09:54 | 46.21607 | -64.13203 | 3297 ft | 282 kts | 237° |
| 2026-04-18 09:54 | 46.20537 | -64.15576 | 3455 ft | 282 kts | 236° |
| 2026-04-18 09:55 | 46.19457 | -64.17947 | 3614 ft | 283 kts | 237° |
| 2026-04-18 09:55 | 46.18377 | -64.20326 | 3763 ft | 283 kts | 237° |
| 2026-04-18 09:55 | 46.17290 | -64.22694 | 3912 ft | 283 kts | 237° |
| 2026-04-18 09:55 | 46.16208 | -64.25076 | 3980 ft | 285 kts | 237° |
| 2026-04-18 09:56 | 46.15173 | -64.27346 | 3969 ft | 258 kts | 237° |
| 2026-04-18 09:56 | 46.14251 | -64.29370 | 3967 ft | 232 kts | 237° |
| 2026-04-18 09:56 | 46.13411 | -64.31207 | 3960 ft | 208 kts | 237° |
| 2026-04-18 09:56 | 46.12633 | -64.32910 | 3964 ft | 199 kts | 237° |
| 2026-04-18 09:57 | 46.11840 | -64.34649 | 3978 ft | 219 kts | 237° |
| 2026-04-18 09:57 | 46.10949 | -64.36595 | 3992 ft | 246 kts | 236° |
| 2026-04-18 09:57 | 46.09967 | -64.38742 | 3991 ft | 266 kts | 236° |
| 2026-04-18 09:57 | 46.08938 | -64.40986 | 3982 ft | 277 kts | 236° |
| 2026-04-18 09:58 | 46.07859 | -64.43341 | 3982 ft | 284 kts | 236° |
| 2026-04-18 09:58 | 46.06762 | -64.45731 | 3979 ft | 287 kts | 236° |
| 2026-04-18 09:58 | 46.05655 | -64.48141 | 3977 ft | 289 kts | 236° |
| 2026-04-18 09:58 | 46.04542 | -64.50561 | 3978 ft | 290 kts | 236° |
| 2026-04-18 09:59 | 46.03425 | -64.52990 | 3975 ft | 291 kts | 236° |
| 2026-04-18 09:59 | 46.02309 | -64.55414 | 3977 ft | 291 kts | 236° |
| 2026-04-18 09:59 | 46.01192 | -64.57839 | 3975 ft | 291 kts | 236° |
| 2026-04-18 10:00 | 45.98965 | -64.62664 | 3969 ft | 291 kts | 236° |
| 2026-04-18 10:00 | 45.97842 | -64.65093 | 3970 ft | 291 kts | 236° |
| 2026-04-18 10:00 | 45.96719 | -64.67521 | 3971 ft | 292 kts | 236° |
| 2026-04-18 10:00 | 45.95595 | -64.69950 | 3994 ft | 292 kts | 236° |
| 2026-04-18 10:01 | 45.94472 | -64.72374 | 3999 ft | 282 kts | 236° |
| 2026-04-18 10:01 | 45.93496 | -64.74487 | 3974 ft | 234 kts | 237° |
| 2026-04-18 10:01 | 45.93005 | -64.76546 | 3973 ft | 208 kts | 266° |
| 2026-04-18 10:01 | 45.93141 | -64.78526 | 3988 ft | 193 kts | 288° |
| 2026-04-18 10:02 | 45.93722 | -64.80138 | 3977 ft | 171 kts | 309° |
| 2026-04-18 10:02 | 45.94495 | -64.81355 | 3865 ft | 167 kts | 314° |
| 2026-04-18 10:02 | 45.95266 | -64.82577 | 3654 ft | 163 kts | 314° |
| 2026-04-18 10:02 | 45.96027 | -64.83772 | 3439 ft | 162 kts | 314° |
| 2026-04-18 10:03 | 45.96785 | -64.84963 | 3229 ft | 161 kts | 315° |
| 2026-04-18 10:03 | 45.97545 | -64.86156 | 3020 ft | 162 kts | 315° |
| 2026-04-18 10:03 | 45.98383 | -64.87167 | 2854 ft | 157 kts | 348° |
| 2026-04-18 10:03 | 45.99355 | -64.86833 | 2665 ft | 144 kts | 51° |
| 2026-04-18 10:04 | 45.99629 | -64.85526 | 2559 ft | 136 kts | 85° |
| 2026-04-18 10:04 | 45.99936 | -64.84238 | 2464 ft | 139 kts | 61° |
| 2026-04-18 10:04 | 46.00493 | -64.83124 | 2379 ft | 141 kts | 48° |
| 2026-04-18 10:04 | 46.01193 | -64.82131 | 2303 ft | 142 kts | 49° |
| 2026-04-18 10:05 | 46.01903 | -64.81143 | 2228 ft | 140 kts | 47° |
| 2026-04-18 10:05 | 46.02589 | -64.80225 | 2092 ft | 131 kts | 47° |
| 2026-04-18 10:05 | 46.03250 | -64.79340 | 1901 ft | 128 kts | 47° |
| 2026-04-18 10:05 | 46.03897 | -64.78473 | 1708 ft | 126 kts | 47° |
| 2026-04-18 10:06 | 46.04534 | -64.77617 | 1507 ft | 124 kts | 47° |
| 2026-04-18 10:06 | 46.05166 | -64.76774 | 1315 ft | 123 kts | 47° |
| 2026-04-18 10:06 | 46.05795 | -64.75933 | 1110 ft | 125 kts | 46° |
| 2026-04-18 10:06 | 46.06418 | -64.75095 | 937 ft | 119 kts | 45° |
| 2026-04-18 10:07 | 46.06989 | -64.74330 | 782 ft | 109 kts | 44° |
| 2026-04-18 10:07 | 46.07536 | -64.73599 | 560 ft | 108 kts | 43° |
| 2026-04-18 10:07 | 46.08141 | -64.72783 | 561 ft | 126 kts | 43° |
| 2026-04-18 10:07 | 46.08803 | -64.71885 | 601 ft | 131 kts | 43° |
| 2026-04-18 10:08 | 46.09400 | -64.71064 | 476 ft | 117 kts | 44° |
| 2026-04-18 10:08 | 46.10015 | -64.70214 | 419 ft | 120 kts | 42° |
| 2026-04-18 10:08 | 46.10602 | -64.69446 | 241 ft | 122 kts | 42° |
| 2026-04-18 10:08 | 46.11192 | -64.68669 | 197 ft | 93 kts | 45° |
| 2026-04-18 10:09 | 46.11534 | -64.68220 | 202 ft | 56 kts | 43° |
| 2026-04-18 10:09 | 46.11777 | -64.67899 | 193 ft | 24 kts | 33° |
| 2026-04-18 10:09 | 46.11901 | -64.67955 | 196 ft | 20 kts | 279° |
| 2026-04-18 10:09 | 46.11835 | -64.68127 | 193 ft | 22 kts | 220° |
| 2026-04-18 10:10 | 46.11725 | -64.68263 | 197 ft | 20 kts | 222° |
| 2026-04-18 10:10 | 46.11608 | -64.68421 | 200 ft | 25 kts | 223° |
| 2026-04-18 10:10 | 46.11546 | -64.68503 | 196 ft | 0 kts | 223° |